Time;durP1;ratioP1;P1;durP2;ratioP2;P2;SDS_P1;SDS_P2;PMS_P1;PMS_P2;Temp;Humidity;BMP_temperature;BMP_pressure;BME280_temperature;BME280_humidity;BME280_pressure;Samples;Min_cycle;Max_cycle;Signal;HPM_P1;HPM_P2
2023/07/21 00:01:06;;;;;;;6.53;5.90;;;16.70;99.90;;;;;;5094810;28;20441;-70
2023/07/21 00:03:32;;;;;;;7.63;6.83;;;16.60;99.90;;;;;;5094394;28;20407;-70
2023/07/21 00:06:02;;;;;;;9.97;6.73;;;16.60;99.90;;;;;;5094290;28;20404;-70
2023/07/21 00:08:30;;;;;;;7.17;5.90;;;16.60;99.90;;;;;;5094154;28;20500;-70
2023/07/21 00:10:57;;;;;;;5.87;5.37;;;16.60;99.90;;;;;;5094357;28;20444;-70
2023/07/21 00:13:23;;;;;;;6.20;5.60;;;16.50;99.90;;;;;;5094259;28;20767;-70
2023/07/21 00:15:49;;;;;;;9.50;6.73;;;16.50;99.90;;;;;;5094044;28;20832;-70
2023/07/21 00:18:15;;;;;;;7.20;6.50;;;16.40;99.90;;;;;;5093582;28;20419;-70
2023/07/21 00:20:41;;;;;;;7.10;6.00;;;16.30;99.90;;;;;;5094190;28;20193;-70
2023/07/21 00:23:06;;;;;;;7.30;6.60;;;16.20;99.90;;;;;;5094030;28;20431;-70
2023/07/21 00:25:32;;;;;;;7.30;6.43;;;16.20;99.90;;;;;;5093913;28;20191;-69
2023/07/21 00:27:58;;;;;;;7.80;7.00;;;16.10;99.90;;;;;;5093854;28;20193;-69
2023/07/21 00:30:23;;;;;;;7.60;7.00;;;16.00;99.90;;;;;;5093908;28;20197;-70
2023/07/21 00:32:49;;;;;;;7.17;6.47;;;16.00;99.90;;;;;;5093871;28;20219;-70
2023/07/21 00:35:15;;;;;;;8.90;8.10;;;16.00;99.90;;;;;;5093754;28;20168;-70
2023/07/21 00:37:41;;;;;;;9.13;7.47;;;15.90;99.90;;;;;;5093678;28;20158;-70
2023/07/21 00:40:09;;;;;;;9.70;8.70;;;15.90;99.90;;;;;;5093828;28;20183;-69
2023/07/21 00:42:36;;;;;;;9.90;8.90;;;15.90;99.90;;;;;;5093744;28;20735;-70
2023/07/21 00:45:02;;;;;;;10.93;9.13;;;15.80;99.90;;;;;;5093428;28;20404;-70
2023/07/21 00:47:29;;;;;;;13.87;7.73;;;15.80;99.90;;;;;;5093469;28;20406;-69
2023/07/21 00:49:56;;;;;;;9.83;8.70;;;15.80;99.90;;;;;;5093548;28;20482;-69
2023/07/21 00:52:23;;;;;;;8.90;8.00;;;15.90;99.90;;;;;;5093574;28;20768;-70
2023/07/21 00:54:48;;;;;;;12.93;10.00;;;15.90;99.90;;;;;;5093556;28;20907;-70
2023/07/21 00:57:16;;;;;;;9.97;8.40;;;15.90;99.90;;;;;;5093289;28;20396;-69
2023/07/21 00:59:41;;;;;;;11.57;8.27;;;15.90;99.90;;;;;;5093302;28;20246;-70
2023/07/21 01:02:07;;;;;;;10.33;8.57;;;16.00;99.90;;;;;;5093356;28;20407;-69
2023/07/21 01:04:33;;;;;;;10.70;9.50;;;16.00;99.90;;;;;;5093298;28;21153;-69
2023/07/21 01:07:00;;;;;;;10.00;8.93;;;16.00;99.90;;;;;;5092981;28;20408;-69
2023/07/21 01:09:27;;;;;;;9.27;8.33;;;16.00;99.90;;;;;;5092857;28;20520;-69
2023/07/21 01:11:54;;;;;;;10.77;9.67;;;16.10;99.90;;;;;;5093275;28;20399;-70
2023/07/21 01:14:20;;;;;;;10.00;8.00;;;16.00;99.90;;;;;;5093190;28;20396;-70
2023/07/21 01:16:47;;;;;;;11.50;8.87;;;16.10;99.90;;;;;;5092852;28;20444;-70
2023/07/21 01:19:14;;;;;;;8.77;7.97;;;16.10;99.90;;;;;;5092952;28;20318;-69
2023/07/21 01:21:59;;;;;;;7.90;7.10;;;16.10;99.90;;;;;;5092973;28;20415;-70
2023/07/21 01:24:47;;;;;;;10.30;8.40;;;16.20;99.90;;;;;;5093004;28;20483;-69
2023/07/21 01:27:15;;;;;;;9.67;8.60;;;16.20;99.90;;;;;;5092778;28;20404;-70
2023/07/21 01:29:42;;;;;;;11.30;8.60;;;16.20;99.90;;;;;;5092225;28;20839;-69
2023/07/21 01:32:10;;;;;;;8.80;7.90;;;16.30;99.90;;;;;;5092539;28;20464;-70
2023/07/21 01:34:37;;;;;;;11.10;9.33;;;16.30;99.90;;;;;;5092726;28;20396;-69
2023/07/21 01:37:04;;;;;;;9.63;7.67;;;16.40;99.90;;;;;;5092447;28;20404;-70
2023/07/21 01:39:31;;;;;;;7.00;6.30;;;16.40;99.90;;;;;;5092641;28;20451;-69
2023/07/21 01:42:00;;;;;;;10.50;7.87;;;16.40;99.90;;;;;;5092722;28;20414;-69
2023/07/21 01:44:26;;;;;;;7.20;6.47;;;16.40;99.90;;;;;;5092529;28;20414;-70
2023/07/21 01:46:54;;;;;;;6.67;5.80;;;16.40;99.90;;;;;;5092286;28;20403;-69
2023/07/21 01:49:20;;;;;;;8.80;7.90;;;16.40;99.90;;;;;;5092212;28;20458;-70
2023/07/21 01:51:51;;;;;;;8.83;7.93;;;16.40;99.90;;;;;;5092513;28;20773;-69
2023/07/21 01:54:36;;;;;;;8.77;7.90;;;16.40;99.90;;;;;;5091151;28;20235;-68
2023/07/21 01:57:06;;;;;;;7.50;6.13;;;16.50;99.90;;;;;;5091832;28;20415;-70
2023/07/21 01:59:32;;;;;;;8.00;6.80;;;16.50;99.90;;;;;;5092200;28;20520;-69
2023/07/21 02:01:59;;;;;;;7.50;6.80;;;16.50;99.90;;;;;;5092330;28;20932;-69
2023/07/21 02:04:25;;;;;;;6.93;6.27;;;16.50;99.90;;;;;;5092409;28;20927;-70
2023/07/21 02:06:51;;;;;;;8.47;7.57;;;16.50;99.90;;;;;;5091836;28;20415;-70
2023/07/21 02:09:19;;;;;;;8.20;6.90;;;16.50;99.90;;;;;;5091979;28;20982;-70
2023/07/21 02:11:45;;;;;;;7.23;6.53;;;16.50;99.90;;;;;;5092320;28;20711;-69
2023/07/21 02:14:10;;;;;;;9.57;7.60;;;16.50;99.90;;;;;;5092072;28;20435;-70
2023/07/21 02:16:37;;;;;;;7.57;6.57;;;16.50;99.90;;;;;;5091869;28;20178;-70
2023/07/21 02:19:05;;;;;;;9.10;6.87;;;16.50;99.90;;;;;;5092126;28;20192;-70
2023/07/21 02:21:31;;;;;;;7.33;6.50;;;16.50;99.90;;;;;;5092104;28;20415;-70
2023/07/21 02:23:56;;;;;;;10.40;7.77;;;16.50;99.90;;;;;;5092142;28;20399;-70
2023/07/21 02:26:22;;;;;;;9.40;7.30;;;16.50;99.90;;;;;;5091794;28;20177;-70
2023/07/21 02:28:48;;;;;;;7.90;7.07;;;16.50;99.90;;;;;;5091909;28;20216;-70
2023/07/21 02:31:13;;;;;;;10.50;7.57;;;16.60;99.90;;;;;;5092101;28;20219;-70
2023/07/21 02:33:39;;;;;;;8.13;7.03;;;16.60;99.90;;;;;;5092042;28;20173;-70
2023/07/21 02:36:05;;;;;;;8.63;7.60;;;16.60;99.90;;;;;;5091698;28;20165;-70
2023/07/21 02:38:31;;;;;;;8.30;7.50;;;16.50;99.90;;;;;;5091953;28;20669;-69
2023/07/21 02:41:02;;;;;;;12.23;7.90;;;16.50;99.90;;;;;;5091914;28;20418;-69
2023/07/21 02:43:28;;;;;;;12.27;9.13;;;16.60;99.90;;;;;;5096089;28;20176;-68
2023/07/21 02:45:54;;;;;;;10.00;8.93;;;16.60;99.90;;;;;;5095690;28;20412;-69
2023/07/21 02:48:21;;;;;;;10.20;9.13;;;16.60;99.90;;;;;;5095970;28;20181;-69
2023/07/21 02:50:51;;;;;;;8.50;7.70;;;16.60;99.90;;;;;;5094629;28;20625;-69
2023/07/21 02:53:20;;;;;;;12.93;8.00;;;16.60;99.90;;;;;;5095843;28;20490;-69
2023/07/21 02:55:46;;;;;;;9.90;8.57;;;16.60;99.90;;;;;;5095554;28;20422;-70
2023/07/21 02:58:14;;;;;;;9.40;8.50;;;16.60;99.90;;;;;;5095618;28;20415;-69
2023/07/21 03:00:40;;;;;;;11.23;8.97;;;16.60;99.90;;;;;;5095779;28;20407;-69
2023/07/21 03:03:07;;;;;;;9.97;8.87;;;16.60;99.90;;;;;;5094214;28;20407;-69
2023/07/21 03:05:33;;;;;;;10.77;8.63;;;16.60;99.90;;;;;;5092863;28;20411;-70
2023/07/21 03:07:59;;;;;;;10.13;8.73;;;16.60;99.90;;;;;;5095412;28;20446;-69
2023/07/21 03:10:25;;;;;;;7.90;7.10;;;16.60;99.90;;;;;;5095463;28;20451;-70
2023/07/21 03:12:51;;;;;;;15.33;8.90;;;16.60;99.90;;;;;;5095377;28;20764;-70
2023/07/21 03:15:16;;;;;;;8.70;7.70;;;16.60;99.90;;;;;;5095229;28;20172;-70
2023/07/21 03:17:42;;;;;;;7.67;6.97;;;16.60;99.90;;;;;;5095276;28;20158;-69
2023/07/21 03:20:12;;;;;;;9.00;7.70;;;16.60;99.90;;;;;;5095318;28;20243;-70
2023/07/21 03:22:38;;;;;;;7.80;6.77;;;16.70;99.90;;;;;;5095277;28;20195;-69
2023/07/21 03:25:06;;;;;;;6.90;6.20;;;16.70;99.90;;;;;;5095040;28;20399;-69
2023/07/21 03:27:32;;;;;;;8.13;7.33;;;16.70;99.90;;;;;;5095073;28;20399;-69
2023/07/21 03:29:58;;;;;;;14.00;10.03;;;16.70;99.90;;;;;;5095028;28;20459;-69
2023/07/21 03:32:23;;;;;;;8.33;7.50;;;16.70;99.90;;;;;;5095114;28;20490;-69
2023/07/21 03:34:49;;;;;;;10.33;8.80;;;16.70;99.90;;;;;;5094903;28;20174;-69
2023/07/21 03:37:15;;;;;;;8.80;7.83;;;16.70;99.90;;;;;;5094587;28;20157;-69
2023/07/21 03:39:44;;;;;;;9.53;8.53;;;16.70;99.90;;;;;;5094889;28;20268;-69
2023/07/21 03:42:10;;;;;;;12.33;8.70;;;16.70;99.90;;;;;;5094923;28;20537;-69
2023/07/21 03:44:35;;;;;;;9.50;8.60;;;16.70;99.90;;;;;;5093595;28;20407;-69
2023/07/21 03:47:01;;;;;;;8.97;7.77;;;16.70;99.90;;;;;;5094698;28;20257;-70
2023/07/21 03:49:26;;;;;;;11.07;9.30;;;16.80;99.90;;;;;;5094559;28;20684;-70
2023/07/21 03:51:52;;;;;;;9.97;7.47;;;16.70;99.90;;;;;;5094840;28;20181;-69
2023/07/21 03:54:17;;;;;;;12.80;7.80;;;16.70;99.90;;;;;;5093857;28;20658;-68
2023/07/21 03:56:43;;;;;;;10.97;8.77;;;16.70;99.90;;;;;;5094445;28;20169;-69
2023/07/21 03:59:08;;;;;;;9.73;8.67;;;16.70;99.90;;;;;;5094497;28;20714;-69
2023/07/21 04:01:34;;;;;;;8.20;7.40;;;16.70;99.90;;;;;;5094639;28;20174;-69
2023/07/21 04:03:59;;;;;;;10.70;9.70;;;16.70;99.90;;;;;;5094253;28;20584;-69
2023/07/21 04:06:25;;;;;;;10.83;8.27;;;16.80;99.90;;;;;;5094263;28;20173;-69
2023/07/21 04:08:51;;;;;;;8.77;7.87;;;16.80;99.90;;;;;;5094149;28;20226;-69
2023/07/21 04:11:17;;;;;;;10.70;8.53;;;16.80;99.90;;;;;;5094423;28;20211;-70
2023/07/21 04:13:42;;;;;;;9.97;8.97;;;16.80;99.90;;;;;;5094290;28;20414;-68
2023/07/21 04:16:08;;;;;;;10.20;7.73;;;16.80;99.90;;;;;;5094046;28;20392;-69
2023/07/21 04:18:33;;;;;;;11.90;9.70;;;16.80;99.90;;;;;;5094184;28;20190;-69
2023/07/21 04:20:59;;;;;;;9.10;7.57;;;16.80;99.90;;;;;;5094665;28;20634;-69
2023/07/21 04:23:24;;;;;;;9.83;8.70;;;16.80;99.90;;;;;;5092889;28;20658;-69
2023/07/21 04:25:50;;;;;;;11.93;7.87;;;16.80;99.90;;;;;;5093778;28;20638;-69
2023/07/21 04:28:15;;;;;;;8.60;7.80;;;16.80;99.90;;;;;;5094065;28;20264;-69
2023/07/21 04:30:41;;;;;;;12.17;9.07;;;16.90;99.90;;;;;;5093887;28;20200;-69
2023/07/21 04:33:06;;;;;;;11.67;9.27;;;16.90;99.90;;;;;;5093906;28;20166;-68
2023/07/21 04:35:32;;;;;;;9.43;8.30;;;16.90;99.90;;;;;;5093620;28;20177;-69
2023/07/21 04:37:59;;;;;;;11.77;8.67;;;16.90;99.90;;;;;;5093809;28;20185;-69
2023/07/21 04:40:25;;;;;;;10.97;7.90;;;16.90;99.90;;;;;;5093750;28;20158;-69
2023/07/21 04:42:50;;;;;;;11.73;9.70;;;16.90;99.90;;;;;;5093871;28;20457;-70
2023/07/21 04:45:16;;;;;;;10.07;8.70;;;16.90;99.90;;;;;;5093383;28;20162;-70
2023/07/21 04:47:42;;;;;;;8.90;7.30;;;17.00;99.90;;;;;;5092333;28;20635;-69
2023/07/21 04:50:08;;;;;;;8.50;7.37;;;17.00;99.90;;;;;;5092245;28;20292;-69
2023/07/21 04:52:36;;;;;;;12.87;8.70;;;17.10;99.90;;;;;;5093603;28;20165;-69
2023/07/21 04:55:03;;;;;;;9.67;7.77;;;17.10;99.90;;;;;;5093168;28;20408;-70
2023/07/21 04:57:28;;;;;;;11.37;9.20;;;17.20;99.90;;;;;;5093467;28;20404;-69
2023/07/21 04:59:56;;;;;;;13.93;10.70;;;17.30;99.90;;;;;;5093266;28;20427;-68
2023/07/21 05:02:23;;;;;;;25.27;20.90;;;17.30;99.90;;;;;;5093253;28;20162;-68
2023/07/21 05:04:48;;;;;;;17.43;15.53;;;17.30;99.90;;;;;;5093336;28;20452;-69
2023/07/21 05:07:14;;;;;;;14.87;10.80;;;17.30;99.90;;;;;;5092888;28;20407;-69
2023/07/21 05:09:40;;;;;;;13.10;11.60;;;17.20;99.90;;;;;;5093225;28;20198;-68
2023/07/21 05:12:06;;;;;;;17.10;11.90;;;17.20;99.90;;;;;;5093173;28;20509;-70
2023/07/21 05:14:31;;;;;;;12.43;9.60;;;17.30;99.90;;;;;;5093209;28;20165;-69
2023/07/21 05:16:57;;;;;;;15.33;11.10;;;17.40;99.90;;;;;;5091464;28;20443;-70
2023/07/21 05:19:22;;;;;;;16.40;10.67;;;17.50;99.90;;;;;;5092987;28;20209;-69
2023/07/21 05:21:48;;;;;;;11.07;9.87;;;17.60;99.90;;;;;;5092995;28;20176;-69
2023/07/21 05:24:13;;;;;;;15.00;11.90;;;17.60;99.90;;;;;;5093068;28;20173;-69
2023/07/21 05:26:39;;;;;;;14.57;11.40;;;17.80;99.90;;;;;;5092581;28;20584;-70
2023/07/21 05:29:05;;;;;;;14.60;11.00;;;17.90;99.90;;;;;;5092881;28;20273;-69
2023/07/21 05:31:30;;;;;;;17.53;9.40;;;18.00;99.90;;;;;;5092783;28;20706;-68
2023/07/21 05:33:56;;;;;;;13.37;10.23;;;18.20;99.90;;;;;;5092819;28;20165;-69
2023/07/21 05:36:22;;;;;;;15.23;10.87;;;18.40;99.90;;;;;;5092468;28;20561;-70
2023/07/21 05:38:47;;;;;;;11.50;10.13;;;18.50;99.90;;;;;;5092673;28;20254;-70
2023/07/21 05:41:13;;;;;;;12.67;10.23;;;18.70;99.90;;;;;;5092633;28;20169;-69
2023/07/21 05:43:38;;;;;;;13.53;10.93;;;18.90;99.90;;;;;;5091428;28;20166;-68
2023/07/21 05:46:05;;;;;;;10.33;9.13;;;19.10;99.90;;;;;;5092321;28;20170;-69
2023/07/21 05:48:30;;;;;;;14.17;10.23;;;19.30;99.90;;;;;;5092483;28;20188;-68
2023/07/21 05:50:56;;;;;;;13.83;10.13;;;19.40;99.90;;;;;;5092570;28;20454;-69
2023/07/21 05:53:21;;;;;;;13.00;10.23;;;19.60;99.90;;;;;;5092542;28;20165;-69
2023/07/21 05:55:47;;;;;;;13.73;9.60;;;19.50;99.90;;;;;;5092136;28;20180;-69
2023/07/21 05:58:13;;;;;;;12.37;10.17;;;19.60;99.90;;;;;;5092236;28;20188;-69
2023/07/21 06:00:39;;;;;;;14.53;9.83;;;19.50;99.90;;;;;;5092393;28;20791;-69
2023/07/21 06:03:05;;;;;;;14.23;11.67;;;19.50;99.90;;;;;;5092354;28;20272;-68
2023/07/21 06:05:32;;;;;;;13.30;9.73;;;19.50;99.90;;;;;;5092114;28;20412;-69
2023/07/21 06:07:57;;;;;;;11.40;10.20;;;19.40;99.90;;;;;;5091957;28;20471;-69
2023/07/21 06:10:23;;;;;;;13.53;10.40;;;19.40;99.90;;;;;;5090803;28;21003;-69
2023/07/21 06:12:48;;;;;;;13.63;11.70;;;19.50;99.90;;;;;;5092187;28;20196;-70
2023/07/21 06:15:14;;;;;;;14.03;9.80;;;19.60;99.90;;;;;;5092012;28;20239;-69
2023/07/21 06:17:40;;;;;;;11.40;10.20;;;19.90;99.90;;;;;;5090620;28;20165;-69
2023/07/21 06:20:07;;;;;;;13.13;9.40;;;20.20;99.90;;;;;;5092245;28;20170;-69
2023/07/21 06:22:33;;;;;;;12.37;9.60;;;20.70;99.90;;;;;;5092144;28;20161;-69
2023/07/21 06:24:59;;;;;;;13.53;10.80;;;21.20;99.90;;;;;;5091840;28;20399;-69
2023/07/21 06:27:25;;;;;;;10.77;7.97;;;21.60;99.90;;;;;;5091942;28;20168;-69
2023/07/21 06:29:50;;;;;;;9.67;8.77;;;22.40;99.90;;;;;;5091731;28;20979;-69
2023/07/21 06:32:16;;;;;;;9.87;8.67;;;23.30;99.90;;;;;;5091952;28;20172;-69
2023/07/21 06:34:41;;;;;;;8.43;6.20;;;24.20;99.90;;;;;;5091860;28;20170;-69
2023/07/21 06:37:07;;;;;;;6.03;5.53;;;25.30;99.90;;;;;;5091634;28;20170;-70
2023/07/21 06:39:33;;;;;;;7.93;7.13;;;26.30;99.90;;;;;;5091758;28;20673;-69
2023/07/21 06:41:59;;;;;;;6.20;5.10;;;27.00;99.90;;;;;;5091958;28;20195;-69
2023/07/21 06:44:24;;;;;;;6.70;6.10;;;27.70;99.90;;;;;;5091996;28;20399;-69
2023/07/21 06:46:52;;;;;;;6.33;5.80;;;28.00;99.90;;;;;;5091641;28;20582;-69
2023/07/21 06:49:17;;;;;;;6.30;4.57;;;28.30;99.90;;;;;;5091684;28;20190;-69
2023/07/21 06:51:43;;;;;;;8.03;7.30;;;28.90;99.90;;;;;;5091841;28;20957;-70
2023/07/21 06:54:09;;;;;;;6.67;4.47;;;29.20;93.30;;;;;;5091722;28;20204;-69
2023/07/21 06:56:35;;;;;;;5.50;5.00;;;29.60;91.30;;;;;;5091517;28;20638;-69
2023/07/21 06:59:01;;;;;;;10.70;6.53;;;29.70;85.10;;;;;;5091627;28;20423;-69
2023/07/21 07:01:27;;;;;;;5.43;4.93;;;29.50;78.30;;;;;;5092032;28;20407;-69
2023/07/21 07:03:54;;;;;;;7.40;6.60;;;29.20;80.20;;;;;;5091686;28;20404;-69
2023/07/21 07:06:19;;;;;;;8.00;7.20;;;29.20;81.80;;;;;;5091064;28;20164;-70
2023/07/21 07:08:46;;;;;;;6.23;5.60;;;29.30;79.10;;;;;;5091124;28;20462;-69
2023/07/21 07:11:12;;;;;;;4.10;3.80;;;29.80;78.80;;;;;;5091629;28;20197;-69
2023/07/21 07:13:37;;;;;;;8.43;7.07;;;30.20;78.70;;;;;;5091685;28;20876;-70
2023/07/21 07:16:03;;;;;;;5.60;4.90;;;30.50;75.80;;;;;;5091303;28;20166;-69
2023/07/21 07:18:29;;;;;;;5.73;5.20;;;30.30;72.20;;;;;;5091481;28;20181;-69
2023/07/21 07:20:56;;;;;;;6.63;6.00;;;30.00;71.80;;;;;;5091540;28;20512;-68
2023/07/21 07:23:23;;;;;;;5.77;5.30;;;30.20;74.70;;;;;;5091583;28;20170;-70
2023/07/21 07:25:50;;;;;;;5.13;3.80;;;31.00;75.10;;;;;;5091138;28;20776;-69
2023/07/21 07:28:17;;;;;;;7.13;6.53;;;31.90;68.90;;;;;;5091749;28;20838;-69
2023/07/21 07:30:44;;;;;;;5.43;5.00;;;32.60;62.90;;;;;;5095043;28;20542;-70
2023/07/21 07:33:10;;;;;;;5.20;4.80;;;33.00;58.50;;;;;;5093927;28;20418;-69
2023/07/21 07:35:35;;;;;;;5.47;4.97;;;33.20;57.00;;;;;;5094788;28;20427;-69
2023/07/21 07:38:01;;;;;;;5.53;5.03;;;33.40;56.00;;;;;;5094976;28;20219;-69
2023/07/21 07:40:26;;;;;;;7.10;6.40;;;33.50;54.40;;;;;;5094998;28;20181;-70
2023/07/21 07:42:52;;;;;;;4.83;4.43;;;33.30;53.10;;;;;;5094974;28;20174;-70
2023/07/21 07:45:17;;;;;;;6.33;5.73;;;32.90;53.20;;;;;;5094615;28;20169;-68
2023/07/21 07:47:44;;;;;;;4.60;4.20;;;32.80;53.10;;;;;;5094853;28;20173;-69
2023/07/21 07:50:13;;;;;;;6.10;5.60;;;32.90;53.50;;;;;;5094753;28;20205;-69
2023/07/21 07:52:42;;;;;;;7.60;6.40;;;32.90;52.90;;;;;;5094284;28;20403;-69
2023/07/21 07:55:08;;;;;;;6.20;5.30;;;32.90;52.80;;;;;;5094385;28;20407;-69
2023/07/21 07:57:34;;;;;;;6.80;6.27;;;33.30;52.80;;;;;;5093417;28;20397;-69
2023/07/21 07:59:59;;;;;;;6.40;5.90;;;34.20;51.90;;;;;;5094456;28;20419;-69
2023/07/21 08:02:25;;;;;;;5.00;4.50;;;35.30;49.70;;;;;;5094483;28;20173;-69
2023/07/21 08:04:51;;;;;;;4.60;4.20;;;36.60;47.90;;;;;;5094288;28;20185;-70
2023/07/21 08:07:18;;;;;;;5.30;4.80;;;37.40;45.90;;;;;;5094045;28;20526;-69
2023/07/21 08:09:43;;;;;;;7.53;6.93;;;37.40;42.90;;;;;;5094165;28;20189;-70
2023/07/21 08:12:09;;;;;;;5.90;5.47;;;36.80;42.20;;;;;;5094199;28;21040;-70
2023/07/21 08:14:34;;;;;;;6.00;5.60;;;36.10;42.70;;;;;;5094477;28;20690;-69
2023/07/21 08:17:03;;;;;;;8.50;6.40;;;35.80;43.80;;;;;;5093912;28;20634;-69
2023/07/21 08:19:32;;;;;;;7.67;7.03;;;35.60;44.30;;;;;;5094176;28;20190;-70
2023/07/21 08:22:07;;;;;;;11.50;5.77;;;35.20;43.10;;;;;;5094098;28;20410;-70
2023/07/21 08:24:33;;;;;;;5.43;5.00;;;34.80;43.40;;;;;;5094086;28;20737;-69
2023/07/21 08:26:59;;;;;;;6.27;5.67;;;34.30;44.40;;;;;;5093883;28;20395;-70
2023/07/21 08:29:26;;;;;;;5.30;4.90;;;34.00;44.90;;;;;;5093972;28;20197;-68
2023/07/21 08:31:52;;;;;;;4.43;4.03;;;33.60;45.60;;;;;;5094040;28;20392;-70
2023/07/21 08:34:17;;;;;;;6.73;6.00;;;33.20;45.70;;;;;;5093968;28;20392;-69
2023/07/21 08:36:43;;;;;;;5.80;5.20;;;32.60;45.90;;;;;;5093585;28;20407;-69
2023/07/21 08:39:08;;;;;;;6.00;5.47;;;32.20;46.30;;;;;;5093430;28;20221;-70
2023/07/21 08:41:37;;;;;;;5.83;5.23;;;31.80;47.20;;;;;;5093861;28;20158;-69
2023/07/21 08:44:04;;;;;;;6.60;6.00;;;31.40;47.70;;;;;;5093743;28;20162;-69
2023/07/21 08:46:31;;;;;;;9.23;8.13;;;31.00;48.00;;;;;;5093534;28;20486;-69
2023/07/21 08:48:59;;;;;;;6.07;5.53;;;30.70;48.00;;;;;;5093512;28;20434;-70
2023/07/21 08:51:24;;;;;;;5.60;5.10;;;30.60;48.90;;;;;;5093376;28;20395;-71
2023/07/21 08:53:50;;;;;;;6.80;6.20;;;30.60;49.70;;;;;;5093579;28;20403;-69
2023/07/21 08:56:17;;;;;;;8.70;7.90;;;30.60;49.70;;;;;;5093219;28;20162;-69
2023/07/21 08:58:43;;;;;;;8.27;7.50;;;30.40;48.00;;;;;;5093434;28;20177;-70
2023/07/21 09:01:09;;;;;;;5.33;4.83;;;30.30;48.00;;;;;;5093371;28;20418;-69
2023/07/21 09:03:34;;;;;;;5.67;5.17;;;30.30;49.40;;;;;;5093371;28;20404;-69
2023/07/21 09:06:01;;;;;;;5.30;4.90;;;30.60;50.30;;;;;;5093150;28;20287;-70
2023/07/21 09:08:28;;;;;;;7.13;6.43;;;31.10;50.60;;;;;;5093057;28;20289;-70
2023/07/21 09:10:59;;;;;;;5.37;4.70;;;31.90;48.60;;;;;;5091905;28;20455;-69
2023/07/21 09:13:26;;;;;;;5.73;5.17;;;32.70;48.90;;;;;;5093246;28;20760;-70
2023/07/21 09:15:57;;;;;;;5.10;4.60;;;33.10;47.70;;;;;;5092656;28;20403;-68
2023/07/21 09:18:25;;;;;;;4.40;4.00;;;33.30;47.40;;;;;;5093025;28;20518;-70
2023/07/21 09:20:51;;;;;;;3.80;3.50;;;34.10;47.80;;;;;;5091795;28;20498;-69
2023/07/21 09:23:21;;;;;;;4.87;4.47;;;35.50;46.10;;;;;;5091751;28;20503;-70
2023/07/21 09:25:53;;;;;;;3.83;3.30;;;35.70;39.40;;;;;;5092759;28;20166;-69
2023/07/21 09:28:20;;;;;;;2.90;2.70;;;35.50;39.40;;;;;;5091607;28;20953;-69
2023/07/21 09:30:52;;;;;;;4.70;4.30;;;35.40;40.90;;;;;;5091604;28;20414;-70
2023/07/21 09:33:27;;;;;;;4.23;3.80;;;35.20;38.70;;;;;;5092858;28;20875;-68
2023/07/21 09:36:06;;;;;;;7.00;6.30;;;34.90;39.40;;;;;;5092317;28;20895;-69
2023/07/21 09:38:34;;;;;;;6.43;5.93;;;34.50;39.80;;;;;;5092690;28;20434;-69
2023/07/21 09:41:10;;;;;;;6.43;5.83;;;34.40;40.80;;;;;;5092764;28;20407;-68
2023/07/21 09:43:36;;;;;;;3.47;3.27;;;34.40;39.60;;;;;;5092777;28;20900;-69
2023/07/21 09:46:03;;;;;;;3.37;3.07;;;34.70;39.70;;;;;;5092414;28;20464;-68
2023/07/21 09:48:30;;;;;;;2.90;2.70;;;35.30;41.00;;;;;;5092496;28;20553;-69
2023/07/21 09:50:58;;;;;;;4.30;2.50;;;36.00;41.00;;;;;;5091927;28;21006;-69
2023/07/21 09:53:40;;;;;;;2.53;2.33;;;36.50;39.20;;;;;;5092461;28;20400;-69
2023/07/21 09:56:08;;;;;;;2.33;2.20;;;37.00;38.00;;;;;;5092228;28;20391;-70
2023/07/21 09:58:36;;;;;;;3.93;3.13;;;37.80;38.20;;;;;;5092330;28;20502;-70
2023/07/21 10:01:03;;;;;;;2.73;2.50;;;39.30;33.80;;;;;;5092472;28;20386;-70
2023/07/21 10:03:31;;;;;;;2.70;2.50;;;40.80;33.50;;;;;;5092387;28;20382;-69
2023/07/21 10:05:58;;;;;;;2.80;2.60;;;42.10;32.70;;;;;;5092141;28;20382;-70
2023/07/21 10:08:27;;;;;;;2.67;2.47;;;42.60;31.10;;;;;;5092069;28;20426;-69
2023/07/21 10:10:55;;;;;;;2.10;2.00;;;42.90;30.20;;;;;;5090989;28;20434;-69
2023/07/21 10:13:21;;;;;;;2.80;2.60;;;42.80;29.50;;;;;;5092159;28;20401;-70
2023/07/21 10:15:48;;;;;;;2.67;2.47;;;42.90;29.30;;;;;;5091869;28;20461;-70
2023/07/21 10:18:14;;;;;;;2.60;2.40;;;42.80;29.60;;;;;;5092056;28;20177;-69
2023/07/21 10:20:45;;;;;;;2.70;2.50;;;42.50;28.90;;;;;;5090922;28;20414;-69
2023/07/21 10:23:14;;;;;;;2.37;2.17;;;42.20;29.20;;;;;;5091956;28;20486;-69
2023/07/21 10:25:47;;;;;;;2.00;1.90;;;42.20;29.40;;;;;;5091775;28;20399;-69
2023/07/21 10:28:13;;;;;;;4.30;3.07;;;42.20;29.10;;;;;;5091965;28;20398;-70
2023/07/21 10:30:39;;;;;;;3.97;2.00;;;42.20;28.50;;;;;;5091989;28;20455;-71
2023/07/21 10:33:12;;;;;;;2.67;2.40;;;42.40;28.50;;;;;;5092050;28;20404;-71
2023/07/21 10:35:39;;;;;;;1.83;1.73;;;41.90;27.50;;;;;;5091630;28;20190;-71
2023/07/21 10:38:13;;;;;;;2.23;2.13;;;41.50;28.40;;;;;;5092190;28;20398;-70
2023/07/21 10:40:46;;;;;;;2.27;2.13;;;41.00;28.50;;;;;;5092207;28;20776;-69
2023/07/21 10:43:12;;;;;;;3.37;3.17;;;40.10;28.20;;;;;;5091696;28;20407;-69
2023/07/21 10:45:38;;;;;;;2.50;2.30;;;38.90;28.20;;;;;;5091629;28;20438;-69
2023/07/21 10:48:11;;;;;;;3.83;2.60;;;37.60;29.30;;;;;;5090577;28;20654;-69
2023/07/21 10:50:40;;;;;;;2.87;2.67;;;36.50;31.10;;;;;;5091800;28;20490;-69
2023/07/21 10:53:05;;;;;;;2.53;2.33;;;35.80;32.10;;;;;;5092077;28;20908;-69
2023/07/21 10:55:31;;;;;;;2.63;2.43;;;35.10;32.60;;;;;;5091624;28;20439;-69
2023/07/21 10:57:57;;;;;;;3.80;2.77;;;34.40;33.40;;;;;;5091804;28;20169;-69
2023/07/21 11:00:22;;;;;;;3.97;3.60;;;33.80;34.30;;;;;;5091951;28;20170;-69
2023/07/21 11:02:54;;;;;;;2.70;2.50;;;33.40;35.30;;;;;;5093135;28;20218;-69
2023/07/21 11:05:19;;;;;;;3.17;2.67;;;32.90;35.70;;;;;;5095616;28;20673;-69
2023/07/21 11:07:45;;;;;;;3.30;3.00;;;32.40;36.20;;;;;;5095284;28;20428;-66
2023/07/21 11:10:10;;;;;;;4.43;4.03;;;31.70;36.60;;;;;;5095563;28;20193;-68
2023/07/21 11:12:37;;;;;;;3.33;3.03;;;30.50;36.60;;;;;;5095499;28;20185;-69
2023/07/21 11:15:03;;;;;;;3.40;2.90;;;30.20;38.60;;;;;;5095326;28;20157;-67
2023/07/21 11:17:32;;;;;;;2.87;2.67;;;30.00;39.00;;;;;;5095443;28;20480;-68
2023/07/21 11:20:10;;;;;;;2.17;1.97;;;29.80;40.10;;;;;;5095439;28;20924;-67
2023/07/21 11:22:36;;;;;;;3.97;3.57;;;29.50;40.10;;;;;;5095531;28;20494;-67
2023/07/21 11:25:12;;;;;;;4.33;3.57;;;29.10;39.40;;;;;;5095479;28;20427;-67
2023/07/21 11:27:43;;;;;;;4.00;3.63;;;28.50;39.80;;;;;;5095192;28;20200;-67
2023/07/21 11:30:09;;;;;;;7.67;4.90;;;28.20;40.70;;;;;;5095178;28;20508;-68
2023/07/21 11:32:37;;;;;;;3.33;3.03;;;27.50;40.50;;;;;;5093732;28;20473;-68
2023/07/21 11:35:03;;;;;;;3.10;2.80;;;27.20;41.60;;;;;;5095056;28;20448;-68
2023/07/21 11:37:41;;;;;;;3.10;2.80;;;26.90;42.50;;;;;;5094827;28;20498;-67
2023/07/21 11:40:15;;;;;;;2.67;2.47;;;26.90;44.40;;;;;;5095067;28;20413;-66
2023/07/21 11:42:48;;;;;;;2.50;2.30;;;27.00;45.40;;;;;;5094985;28;20961;-66
2023/07/21 11:45:34;;;;;;;2.20;2.10;;;27.20;44.70;;;;;;5094731;28;20759;-67
2023/07/21 11:48:20;;;;;;;3.80;2.30;;;27.80;44.60;;;;;;5095088;28;21230;-66
2023/07/21 11:50:54;;;;;;;2.50;2.20;;;28.20;44.20;;;;;;5094508;28;20455;-67
2023/07/21 11:53:22;;;;;;;3.40;2.40;;;28.50;43.20;;;;;;5094634;28;20907;-67
2023/07/21 11:55:49;;;;;;;3.23;2.93;;;28.60;42.80;;;;;;5094513;28;20400;-67
2023/07/21 11:58:14;;;;;;;1.90;1.80;;;28.60;41.90;;;;;;5094622;28;20503;-68
2023/07/21 12:00:43;;;;;;;2.83;2.63;;;28.70;42.80;;;;;;5094431;28;20482;-67
2023/07/21 12:03:10;;;;;;;3.20;3.00;;;29.10;43.00;;;;;;5094555;28;20632;-68
2023/07/21 12:05:36;;;;;;;3.47;3.00;;;30.00;40.70;;;;;;5094259;28;20445;-67
2023/07/21 12:08:03;;;;;;;2.40;2.20;;;30.30;39.20;;;;;;5094387;28;20451;-68
2023/07/21 12:10:29;;;;;;;2.37;2.17;;;30.70;40.10;;;;;;5094373;28;20458;-67
2023/07/21 12:12:55;;;;;;;2.10;2.00;;;31.00;40.50;;;;;;5094214;28;20889;-68
2023/07/21 12:15:21;;;;;;;7.13;6.43;;;31.20;40.20;;;;;;5093217;28;20666;-68
2023/07/21 12:17:48;;;;;;;3.20;3.00;;;31.30;39.30;;;;;;5094136;28;20575;-68
2023/07/21 12:20:13;;;;;;;2.57;2.37;;;32.70;39.40;;;;;;5094299;28;20884;-67
2023/07/21 12:22:39;;;;;;;2.10;2.00;;;34.50;38.30;;;;;;5092999;28;20486;-68
2023/07/21 12:25:09;;;;;;;2.40;2.20;;;35.60;36.70;;;;;;5093962;28;20212;-68
2023/07/21 12:27:36;;;;;;;1.90;1.80;;;35.30;35.10;;;;;;5094159;28;20457;-68
2023/07/21 12:30:09;;;;;;;1.77;1.67;;;35.40;34.70;;;;;;5093844;28;20455;-68
2023/07/21 12:32:35;;;;;;;2.37;1.90;;;36.30;35.10;;;;;;5093672;28;20452;-68
2023/07/21 12:35:01;;;;;;;2.40;2.20;;;38.40;29.90;;;;;;5093482;28;20400;-68
2023/07/21 12:37:27;;;;;;;2.43;2.07;;;38.70;28.30;;;;;;5093758;28;20392;-68
2023/07/21 12:39:52;;;;;;;1.73;1.63;;;37.60;27.10;;;;;;5093693;28;20786;-68
2023/07/21 12:42:18;;;;;;;3.00;2.17;;;36.80;27.80;;;;;;5093809;28;20197;-68